createdAt,value
2019-03-09T00:00:55.543Z,6.43
2019-03-09T00:03:26.280Z,6.83
2019-03-09T00:05:56.056Z,8.43
2019-03-09T00:08:26.642Z,3.17
2019-03-09T00:10:56.701Z,9.80
2019-03-09T00:13:26.530Z,12.10
2019-03-09T00:15:56.744Z,4.17
2019-03-09T00:18:27.001Z,9.33
2019-03-09T00:20:57.178Z,8.63
2019-03-09T00:23:39.076Z,14.00
2019-03-09T00:26:17.257Z,4.53
2019-03-09T00:28:58.789Z,6.17
2019-03-09T00:31:35.591Z,6.00
2019-03-09T00:34:05.589Z,11.80
2019-03-09T00:36:35.246Z,6.07
2019-03-09T00:39:07.228Z,7.50
2019-03-09T00:41:37.141Z,8.63
2019-03-09T00:44:07.367Z,3.50
2019-03-09T00:46:37.100Z,6.37
2019-03-09T00:49:07.242Z,9.20
2019-03-09T00:51:37.274Z,13.13
2019-03-09T00:54:07.015Z,6.00
2019-03-09T00:56:36.994Z,5.60
2019-03-09T00:59:07.107Z,11.67
2019-03-09T01:01:38.265Z,12.30
2019-03-09T01:04:08.270Z,13.70
2019-03-09T01:06:38.124Z,12.53
2019-03-09T01:09:09.993Z,5.27
2019-03-09T01:11:39.760Z,6.93
2019-03-09T01:14:10.068Z,6.20
2019-03-09T01:16:40.034Z,3.73
2019-03-09T01:19:10.049Z,13.20
2019-03-09T01:21:40.170Z,7.50
2019-03-09T01:24:09.967Z,5.30
2019-03-09T01:26:39.663Z,12.33
2019-03-09T01:29:10.059Z,7.60
2019-03-09T01:31:40.013Z,5.30
2019-03-09T01:34:09.681Z,4.40
2019-03-09T01:36:39.509Z,7.63
2019-03-09T01:39:09.323Z,11.00
2019-03-09T01:41:39.101Z,6.40
2019-03-09T01:44:08.835Z,9.20
2019-03-09T01:46:39.255Z,7.40
2019-03-09T01:49:09.420Z,11.03
2019-03-09T01:51:39.219Z,5.93
2019-03-09T01:54:09.656Z,4.60
2019-03-09T01:56:39.945Z,9.73
2019-03-09T01:59:10.259Z,8.33
2019-03-09T02:01:40.035Z,5.87
2019-03-09T02:04:09.959Z,8.50
2019-03-09T02:06:40.350Z,10.43
2019-03-09T02:09:10.329Z,5.70
2019-03-09T02:11:40.298Z,8.00
2019-03-09T02:14:10.650Z,6.03
2019-03-09T02:16:40.456Z,6.00
2019-03-09T02:19:10.574Z,4.87
2019-03-09T02:21:40.462Z,9.80
2019-03-09T02:24:10.697Z,5.57
2019-03-09T02:26:40.723Z,8.10
2019-03-09T02:29:10.465Z,5.10
2019-03-09T02:31:40.559Z,6.70
2019-03-09T02:34:10.413Z,10.90
2019-03-09T02:36:40.480Z,5.63
2019-03-09T02:39:35.740Z,4.60
2019-03-09T02:42:05.721Z,12.80
2019-03-09T02:44:35.825Z,8.23
2019-03-09T02:47:05.494Z,5.27
2019-03-09T02:49:35.700Z,11.03
2019-03-09T02:52:05.630Z,4.90
2019-03-09T02:54:35.680Z,6.27
2019-03-09T02:57:05.476Z,5.13
2019-03-09T02:59:35.103Z,4.77
2019-03-09T03:02:27.007Z,4.03
2019-03-09T03:04:56.754Z,6.33
2019-03-09T03:07:26.511Z,7.20
2019-03-09T03:09:56.336Z,7.70
2019-03-09T03:12:26.562Z,4.67
2019-03-09T03:14:56.433Z,4.90
2019-03-09T03:17:26.159Z,9.50
2019-03-09T03:19:55.851Z,8.10
2019-03-09T03:22:26.018Z,5.23
2019-03-09T03:24:55.920Z,5.70
2019-03-09T03:27:26.054Z,4.93
2019-03-09T03:29:56.020Z,6.97
2019-03-09T03:32:27.228Z,4.30
2019-03-09T03:34:57.177Z,9.37
2019-03-09T03:37:26.779Z,5.00
2019-03-09T03:39:56.569Z,5.67
2019-03-09T03:42:26.714Z,4.20
2019-03-09T03:44:57.340Z,7.17
2019-03-09T03:47:27.075Z,3.83
2019-03-09T03:49:56.836Z,4.10
2019-03-09T03:52:26.514Z,3.60
2019-03-09T03:54:56.403Z,4.20
2019-03-09T03:57:26.737Z,3.03
2019-03-09T03:59:56.377Z,4.53
2019-03-09T04:02:26.330Z,4.97
2019-03-09T04:04:56.247Z,4.63
2019-03-09T04:07:26.189Z,4.70
2019-03-09T04:09:56.306Z,3.30
2019-03-09T04:12:26.177Z,4.30
2019-03-09T04:14:55.893Z,4.20
2019-03-09T04:17:25.869Z,3.97
2019-03-09T04:19:55.719Z,5.30
2019-03-09T04:22:25.823Z,4.53
2019-03-09T04:24:55.495Z,4.23
2019-03-09T04:27:25.268Z,4.60
2019-03-09T04:29:55.264Z,5.57
2019-03-09T04:32:25.157Z,5.90
2019-03-09T04:34:54.894Z,6.20
2019-03-09T04:37:24.732Z,7.73
2019-03-09T04:39:54.698Z,6.73
2019-03-09T04:42:24.727Z,5.30
2019-03-09T04:44:54.894Z,5.47
2019-03-09T04:47:25.081Z,5.10
2019-03-09T04:49:55.086Z,5.50
2019-03-09T04:52:24.649Z,8.37
2019-03-09T04:54:54.725Z,5.47
2019-03-09T04:57:24.270Z,4.97
2019-03-09T04:59:54.463Z,7.47
2019-03-09T05:02:24.157Z,6.43
2019-03-09T05:04:54.495Z,6.03
2019-03-09T05:07:47.564Z,5.40
2019-03-09T05:10:46.346Z,6.73
2019-03-09T05:13:26.020Z,6.40
2019-03-09T05:15:55.660Z,6.80
2019-03-09T05:18:25.538Z,8.97
2019-03-09T05:20:55.312Z,6.73
2019-03-09T05:23:25.206Z,6.50
2019-03-09T05:25:54.934Z,7.03
2019-03-09T05:28:24.760Z,8.27
2019-03-09T05:30:54.505Z,12.03
2019-03-09T05:33:24.486Z,5.90
2019-03-09T05:35:54.805Z,7.87
2019-03-09T05:38:24.522Z,8.50
2019-03-09T05:40:54.493Z,9.00
2019-03-09T05:43:24.354Z,9.00
2019-03-09T05:45:55.031Z,11.73
2019-03-09T05:48:25.099Z,11.20
2019-03-09T05:50:54.927Z,11.13
2019-03-09T05:53:24.666Z,8.90
2019-03-09T05:55:54.600Z,9.30
2019-03-09T05:58:24.405Z,10.30
2019-03-09T06:00:54.207Z,8.57
2019-03-09T06:03:24.212Z,11.73
2019-03-09T06:06:03.343Z,9.40
2019-03-09T06:08:33.216Z,10.97
2019-03-09T06:11:03.380Z,15.40
2019-03-09T06:13:33.215Z,8.83
2019-03-09T06:16:02.757Z,9.87
2019-03-09T06:18:32.545Z,10.03
2019-03-09T06:21:02.079Z,9.53
2019-03-09T06:23:31.841Z,10.20
2019-03-09T06:26:01.676Z,14.20
2019-03-09T06:28:31.391Z,13.47
2019-03-09T06:31:01.542Z,9.33
2019-03-09T06:33:32.827Z,9.20
2019-03-09T06:36:43.554Z,8.67
2019-03-09T06:39:42.713Z,8.63
2019-03-09T06:42:46.705Z,10.83
2019-03-09T06:45:18.065Z,7.40
2019-03-09T06:47:47.800Z,8.13
2019-03-09T06:50:18.792Z,6.87
2019-03-09T06:52:48.617Z,9.77
2019-03-09T06:55:19.115Z,7.43
2019-03-09T06:57:48.829Z,7.00
2019-03-09T07:00:41.374Z,10.10
2019-03-09T07:03:11.617Z,6.37
2019-03-09T07:05:41.300Z,9.00
2019-03-09T07:08:10.991Z,6.43
2019-03-09T07:10:40.765Z,8.17
2019-03-09T07:13:10.708Z,7.90
2019-03-09T07:15:42.391Z,7.80
2019-03-09T07:18:17.890Z,6.33
2019-03-09T07:20:48.410Z,13.10
2019-03-09T07:23:19.339Z,8.27
2019-03-09T07:25:49.110Z,9.33
2019-03-09T07:28:19.057Z,7.50
2019-03-09T07:30:48.905Z,8.50
2019-03-09T07:33:19.133Z,8.70
2019-03-09T07:35:49.006Z,8.37
2019-03-09T07:38:19.067Z,8.77
2019-03-09T07:40:48.905Z,10.20
2019-03-09T07:43:18.729Z,11.60
2019-03-09T07:45:48.440Z,9.40
2019-03-09T07:48:18.209Z,13.63
2019-03-09T07:50:47.981Z,9.40
2019-03-09T07:53:17.760Z,9.23
2019-03-09T07:55:48.264Z,12.50
2019-03-09T07:58:18.375Z,10.00
2019-03-09T08:00:48.106Z,12.03
2019-03-09T08:03:18.190Z,6.17
2019-03-09T08:05:47.866Z,7.70
2019-03-09T08:08:17.629Z,7.87
2019-03-09T08:10:48.591Z,9.33
2019-03-09T08:13:18.994Z,6.77
2019-03-09T08:15:48.837Z,9.33
2019-03-09T08:18:18.629Z,8.20
2019-03-09T08:20:48.263Z,7.70
2019-03-09T08:23:18.363Z,9.63
2019-03-09T08:25:48.274Z,8.60
2019-03-09T08:28:18.083Z,8.80
2019-03-09T08:30:47.773Z,7.13
2019-03-09T08:33:17.429Z,6.90
2019-03-09T08:35:47.093Z,7.60
2019-03-09T08:38:16.989Z,12.07
2019-03-09T08:40:47.096Z,10.83
2019-03-09T08:43:17.289Z,9.10
2019-03-09T08:45:47.276Z,10.43
2019-03-09T08:48:17.763Z,9.83
2019-03-09T08:50:47.906Z,6.37
2019-03-09T08:53:18.111Z,8.10
2019-03-09T08:55:47.833Z,6.00
2019-03-09T08:58:17.973Z,12.13
2019-03-09T09:00:48.493Z,7.20
2019-03-09T09:03:18.312Z,8.90
2019-03-09T09:05:48.411Z,5.83
2019-03-09T09:08:18.136Z,8.70
2019-03-09T09:10:47.900Z,9.40
2019-03-09T09:13:18.072Z,10.60
2019-03-09T09:15:47.733Z,10.57
2019-03-09T09:18:17.451Z,7.53
2019-03-09T09:20:47.279Z,7.83
2019-03-09T09:23:17.696Z,11.63
2019-03-09T09:25:47.948Z,7.30
2019-03-09T09:28:18.235Z,7.47
2019-03-09T09:30:48.480Z,6.50
2019-03-09T09:33:19.231Z,17.43
2019-03-09T09:35:49.249Z,8.23
2019-03-09T09:38:19.118Z,11.40
2019-03-09T09:40:48.951Z,5.10
2019-03-09T09:43:18.753Z,8.93
2019-03-09T09:45:48.569Z,7.53
2019-03-09T09:48:18.571Z,8.03
2019-03-09T09:50:48.386Z,5.80
2019-03-09T09:53:18.509Z,6.90
2019-03-09T09:55:48.277Z,6.83
2019-03-09T09:58:18.286Z,8.10
2019-03-09T10:00:48.032Z,5.87
2019-03-09T10:03:18.203Z,9.67
2019-03-09T10:05:48.251Z,10.43
2019-03-09T10:08:20.089Z,9.43
2019-03-09T10:10:49.705Z,10.43
2019-03-09T10:13:19.445Z,7.20
2019-03-09T10:15:49.176Z,11.27
2019-03-09T10:18:19.365Z,7.30
2019-03-09T10:20:49.331Z,7.80
2019-03-09T10:23:19.220Z,8.13
2019-03-09T10:25:49.302Z,9.13
2019-03-09T10:28:18.996Z,8.20
2019-03-09T10:30:50.094Z,8.33
2019-03-09T10:33:20.035Z,8.90
2019-03-09T10:35:50.212Z,10.00
2019-03-09T10:38:20.685Z,5.20
2019-03-09T10:40:50.751Z,8.77
2019-03-09T10:43:20.768Z,6.10
2019-03-09T10:45:50.586Z,9.17
2019-03-09T10:48:20.420Z,13.37
2019-03-09T10:50:50.910Z,8.40
2019-03-09T10:53:22.071Z,8.43
2019-03-09T10:55:52.818Z,11.43
2019-03-09T10:58:23.288Z,8.07
2019-03-09T11:00:53.335Z,5.60
2019-03-09T11:03:23.893Z,8.53
2019-03-09T11:05:53.593Z,13.27
2019-03-09T11:08:23.660Z,9.83
2019-03-09T11:10:53.509Z,8.13
2019-03-09T11:13:23.554Z,8.90
2019-03-09T11:15:53.528Z,8.33
2019-03-09T11:18:23.949Z,10.67
2019-03-09T11:20:53.788Z,10.57
2019-03-09T11:23:24.032Z,9.30
2019-03-09T11:25:53.905Z,8.13
2019-03-09T11:28:23.726Z,7.17
2019-03-09T11:30:53.615Z,3.87
2019-03-09T11:33:23.602Z,15.43
2019-03-09T11:35:53.502Z,9.60
2019-03-09T11:38:24.091Z,5.77
2019-03-09T11:40:57.839Z,8.20
2019-03-09T11:43:26.070Z,8.40
2019-03-09T11:45:56.430Z,7.50
2019-03-09T11:48:26.314Z,7.13
2019-03-09T11:50:56.353Z,8.83
2019-03-09T11:53:25.979Z,5.80
2019-03-09T11:55:56.163Z,5.63
2019-03-09T11:58:26.354Z,3.63
2019-03-09T12:00:56.116Z,6.73
2019-03-09T12:03:25.926Z,5.60
2019-03-09T12:05:56.026Z,3.57
2019-03-09T12:08:26.145Z,7.13
2019-03-09T12:10:55.965Z,3.63
2019-03-09T12:13:26.549Z,4.33
2019-03-09T12:15:59.177Z,3.33
2019-03-09T12:18:28.777Z,5.03
2019-03-09T12:20:59.204Z,6.13
2019-03-09T12:23:29.983Z,4.70
2019-03-09T12:25:59.877Z,5.80
2019-03-09T12:28:30.051Z,8.33
2019-03-09T12:31:00.035Z,7.07
2019-03-09T12:33:30.236Z,4.97
2019-03-09T12:36:00.055Z,7.23
2019-03-09T12:38:30.466Z,10.73
2019-03-09T12:41:00.216Z,9.17
2019-03-09T12:43:30.311Z,7.73
2019-03-09T12:46:00.143Z,11.30
2019-03-09T12:48:30.016Z,10.93
2019-03-09T12:50:59.865Z,11.13
2019-03-09T12:53:30.076Z,8.50
2019-03-09T12:56:00.024Z,6.53
2019-03-09T12:58:29.782Z,9.60
2019-03-09T13:01:00.146Z,13.90
2019-03-09T13:03:30.215Z,12.30
2019-03-09T13:06:00.062Z,11.17
2019-03-09T13:08:30.407Z,12.10
2019-03-09T13:11:00.239Z,11.60
2019-03-09T13:13:30.008Z,16.10
2019-03-09T13:15:59.893Z,7.13
2019-03-09T13:18:30.220Z,12.50
2019-03-09T13:21:00.252Z,14.33
2019-03-09T13:23:30.242Z,15.13
2019-03-09T13:26:00.389Z,13.67
2019-03-09T13:28:30.405Z,18.83
2019-03-09T13:31:00.672Z,15.13
2019-03-09T13:33:30.551Z,12.00
2019-03-09T13:36:00.242Z,10.83
2019-03-09T13:38:30.580Z,16.67
2019-03-09T13:41:01.145Z,21.20
2019-03-09T13:43:30.935Z,15.60
2019-03-09T13:46:02.390Z,19.73
2019-03-09T13:48:32.142Z,20.13
2019-03-09T13:51:01.875Z,17.33
2019-03-09T13:53:31.880Z,24.23
2019-03-09T13:56:01.991Z,33.03
2019-03-09T13:58:32.139Z,18.37
2019-03-09T14:01:01.901Z,20.63
2019-03-09T14:03:31.767Z,26.23
2019-03-09T14:06:01.526Z,18.67
2019-03-09T14:08:31.231Z,25.07
2019-03-09T14:11:01.068Z,28.87
2019-03-09T14:13:31.240Z,26.17
2019-03-09T14:16:01.398Z,24.73
2019-03-09T14:18:31.892Z,32.70
2019-03-09T14:21:01.514Z,22.10
2019-03-09T14:23:31.595Z,21.53
2019-03-09T14:26:02.174Z,21.37
2019-03-09T14:28:32.015Z,21.53
2019-03-09T14:31:01.803Z,27.90
2019-03-09T14:33:31.745Z,21.43
2019-03-09T14:36:01.730Z,27.17
2019-03-09T14:38:32.215Z,27.20
2019-03-09T14:41:02.077Z,21.50
2019-03-09T14:43:31.907Z,20.40
2019-03-09T14:46:01.703Z,24.10
2019-03-09T14:48:31.871Z,20.00
2019-03-09T14:51:01.894Z,20.40
2019-03-09T14:53:32.060Z,34.17
2019-03-09T14:56:02.134Z,23.80
2019-03-09T14:58:32.003Z,25.90
2019-03-09T15:01:03.396Z,27.93
2019-03-09T15:03:33.604Z,24.03
2019-03-09T15:06:03.340Z,28.07
2019-03-09T15:08:33.694Z,20.87
2019-03-09T15:11:04.068Z,25.67
2019-03-09T15:13:34.529Z,28.03
2019-03-09T15:16:04.626Z,21.77
2019-03-09T15:18:34.880Z,29.10
2019-03-09T15:21:05.042Z,30.97
2019-03-09T15:23:53.850Z,17.93
2019-03-09T15:26:23.941Z,20.83
2019-03-09T15:28:53.690Z,19.40
2019-03-09T15:31:23.816Z,14.10
2019-03-09T15:33:54.002Z,16.23
2019-03-09T15:36:24.355Z,11.07
2019-03-09T15:38:54.167Z,14.10
2019-03-09T15:41:23.874Z,17.60
2019-03-09T15:43:53.580Z,20.73
2019-03-09T15:46:23.257Z,20.37
2019-03-09T15:48:53.073Z,20.50
2019-03-09T15:51:22.995Z,24.00
2019-03-09T15:53:53.239Z,25.40
2019-03-09T15:56:23.805Z,22.70
2019-03-09T15:58:54.068Z,17.80
2019-03-09T16:01:23.917Z,17.60
2019-03-09T16:03:53.862Z,21.53
2019-03-09T16:06:24.470Z,17.43
2019-03-09T16:08:54.706Z,19.00
2019-03-09T16:11:24.516Z,20.00
2019-03-09T16:13:54.904Z,20.20
2019-03-09T16:16:24.798Z,18.90
2019-03-09T16:18:54.602Z,14.93
2019-03-09T16:21:24.670Z,24.30
2019-03-09T16:23:54.390Z,18.50
2019-03-09T16:26:24.270Z,19.47
2019-03-09T16:28:54.329Z,20.23
2019-03-09T16:31:23.999Z,21.53
2019-03-09T16:33:53.831Z,11.03
2019-03-09T16:36:23.617Z,7.33
2019-03-09T16:38:53.374Z,6.03
2019-03-09T16:41:23.216Z,10.33
2019-03-09T16:43:54.034Z,4.07
2019-03-09T16:46:23.819Z,6.70
2019-03-09T16:48:53.432Z,8.13
2019-03-09T16:51:23.271Z,6.00
2019-03-09T16:53:53.060Z,6.50
2019-03-09T16:56:23.141Z,5.43
2019-03-09T16:58:52.894Z,9.87
2019-03-09T17:01:22.983Z,9.87
2019-03-09T17:03:52.696Z,6.67
2019-03-09T17:06:22.842Z,10.10
2019-03-09T17:08:53.217Z,6.23
2019-03-09T17:11:23.279Z,9.27
2019-03-09T17:13:52.974Z,8.50
2019-03-09T17:16:22.802Z,12.17
2019-03-09T17:18:52.907Z,8.63
2019-03-09T17:21:22.709Z,11.87
2019-03-09T17:23:52.593Z,14.20
2019-03-09T17:26:22.337Z,9.67
2019-03-09T17:28:53.961Z,12.73
2019-03-09T17:31:23.802Z,7.50
2019-03-09T17:33:54.176Z,12.20
2019-03-09T17:36:23.878Z,15.07
2019-03-09T17:38:53.650Z,14.47
2019-03-09T17:41:23.765Z,15.30
2019-03-09T17:43:53.579Z,14.13
2019-03-09T17:46:23.429Z,14.30
2019-03-09T17:48:53.604Z,12.53
2019-03-09T17:51:23.359Z,15.23
2019-03-09T17:53:53.619Z,17.53
2019-03-09T17:56:23.372Z,8.10
2019-03-09T17:58:53.761Z,9.10
2019-03-09T18:01:23.575Z,18.70
2019-03-09T18:03:53.661Z,10.80
2019-03-09T18:06:24.291Z,12.30
2019-03-09T18:08:54.124Z,7.83
2019-03-09T18:11:24.281Z,13.83
2019-03-09T18:13:54.343Z,16.33
2019-03-09T18:16:24.393Z,18.27
2019-03-09T18:18:54.863Z,19.43
2019-03-09T18:21:24.727Z,17.57
2019-03-09T18:23:54.276Z,9.87
2019-03-09T18:26:24.474Z,12.30
2019-03-09T18:28:54.267Z,12.83
2019-03-09T18:31:24.589Z,15.90
2019-03-09T18:33:54.998Z,12.80
2019-03-09T18:36:25.028Z,10.43
2019-03-09T18:38:55.134Z,22.10
2019-03-09T18:41:25.272Z,14.70
2019-03-09T18:43:55.361Z,12.63
2019-03-09T18:46:25.219Z,9.47
2019-03-09T18:48:55.233Z,12.03
2019-03-09T18:51:25.013Z,13.07
2019-03-09T18:53:55.169Z,10.47
2019-03-09T18:56:25.159Z,11.20
2019-03-09T18:58:56.134Z,9.60
2019-03-09T19:01:26.218Z,20.33
2019-03-09T19:03:55.944Z,11.13
2019-03-09T19:06:25.842Z,21.80
2019-03-09T19:08:55.840Z,22.23
2019-03-09T19:11:25.922Z,9.47
2019-03-09T19:13:55.808Z,16.67
2019-03-09T19:16:25.731Z,10.43
2019-03-09T19:18:55.381Z,22.47
2019-03-09T19:21:24.994Z,20.53
2019-03-09T19:23:55.199Z,14.63
2019-03-09T19:26:25.100Z,13.17
2019-03-09T19:28:55.056Z,11.53
2019-03-09T19:31:24.997Z,11.03
2019-03-09T19:33:55.074Z,16.83
2019-03-09T19:36:24.871Z,26.50
2019-03-09T19:38:54.876Z,22.47
2019-03-09T19:41:24.724Z,13.77
2019-03-09T19:43:55.272Z,10.13
2019-03-09T19:46:24.921Z,13.07
2019-03-09T19:48:55.103Z,12.60
2019-03-09T19:51:24.989Z,11.90
2019-03-09T19:53:55.218Z,12.97
2019-03-09T19:56:25.267Z,8.50
2019-03-09T19:58:55.442Z,12.77
2019-03-09T20:01:25.255Z,12.20
2019-03-09T20:03:55.255Z,18.97
2019-03-09T20:06:25.317Z,9.13
2019-03-09T20:08:54.953Z,5.33
2019-03-09T20:11:25.177Z,7.90
2019-03-09T20:13:55.637Z,7.07
2019-03-09T20:16:25.311Z,10.73
2019-03-09T20:18:55.044Z,5.23
2019-03-09T20:21:25.240Z,8.70
2019-03-09T20:23:55.038Z,7.00
2019-03-09T20:26:24.609Z,9.80
2019-03-09T20:28:54.457Z,9.33
2019-03-09T20:31:24.613Z,6.30
2019-03-09T20:33:54.730Z,2.93
2019-03-09T20:36:24.841Z,7.63
2019-03-09T20:38:54.696Z,7.27
2019-03-09T20:41:24.305Z,11.70
2019-03-09T20:43:54.101Z,8.87
2019-03-09T20:46:24.452Z,5.03
2019-03-09T20:48:54.990Z,8.73
2019-03-09T20:51:24.648Z,11.30
2019-03-09T20:53:54.761Z,8.80
2019-03-09T20:56:24.530Z,6.73
2019-03-09T20:58:54.189Z,6.33
2019-03-09T21:01:23.974Z,8.53
2019-03-09T21:03:54.591Z,7.40
2019-03-09T21:06:24.316Z,6.67
2019-03-09T21:08:53.954Z,10.73
2019-03-09T21:11:24.366Z,9.03
2019-03-09T21:13:54.746Z,8.20
2019-03-09T21:16:24.919Z,15.87
2019-03-09T21:18:54.672Z,14.87
2019-03-09T21:21:24.742Z,8.40
2019-03-09T21:23:54.527Z,6.77
2019-03-09T21:26:25.112Z,9.77
2019-03-09T21:28:54.794Z,8.70
2019-03-09T21:31:24.796Z,10.10
2019-03-09T21:33:55.109Z,11.20
2019-03-09T21:36:25.231Z,14.57
2019-03-09T21:38:55.147Z,8.70
2019-03-09T21:41:25.245Z,10.40
2019-03-09T21:43:55.998Z,8.30
2019-03-09T21:46:26.172Z,10.53
2019-03-09T21:48:56.222Z,8.63
2019-03-09T21:51:26.071Z,10.63
2019-03-09T21:53:56.593Z,7.60
2019-03-09T21:56:26.974Z,11.53
2019-03-09T21:58:57.560Z,10.83
2019-03-09T22:01:27.337Z,14.63
2019-03-09T22:03:58.079Z,12.50
2019-03-09T22:06:28.545Z,20.97
2019-03-09T22:08:58.317Z,14.90
2019-03-09T22:11:28.299Z,10.13
2019-03-09T22:13:58.529Z,13.13
2019-03-09T22:16:28.965Z,17.43
2019-03-09T22:18:58.774Z,10.73
2019-03-09T22:21:29.162Z,16.57
2019-03-09T22:23:58.799Z,13.63
2019-03-09T22:26:28.525Z,9.80
2019-03-09T22:28:58.318Z,16.57
2019-03-09T22:31:28.502Z,14.23
2019-03-09T22:33:58.332Z,16.20
2019-03-09T22:36:28.048Z,21.77
2019-03-09T22:38:57.837Z,15.20
2019-03-09T22:41:27.673Z,19.77
2019-03-09T22:43:58.512Z,31.70
2019-03-09T22:46:28.552Z,25.97
2019-03-09T22:48:58.237Z,17.43
2019-03-09T22:51:28.074Z,31.40
2019-03-09T22:53:58.393Z,26.23
2019-03-09T22:56:28.422Z,33.50
2019-03-09T22:58:58.083Z,40.33
2019-03-09T23:01:46.769Z,28.87
2019-03-09T23:04:16.740Z,23.43
2019-03-09T23:06:46.642Z,28.80
2019-03-09T23:09:17.057Z,36.27
2019-03-09T23:11:47.401Z,26.13
2019-03-09T23:14:17.240Z,35.27
2019-03-09T23:16:46.909Z,30.77
2019-03-09T23:19:16.630Z,30.83
2019-03-09T23:21:46.305Z,33.30
2019-03-09T23:24:16.106Z,36.50
2019-03-09T23:26:45.880Z,43.47
2019-03-09T23:29:15.664Z,39.67
2019-03-09T23:31:45.286Z,41.37
2019-03-09T23:34:15.158Z,39.90
2019-03-09T23:36:45.349Z,33.70
2019-03-09T23:39:15.498Z,40.60
2019-03-09T23:41:45.846Z,28.10
2019-03-09T23:44:15.911Z,31.27
2019-03-09T23:46:45.727Z,22.53
2019-03-09T23:49:15.871Z,38.10
2019-03-09T23:51:45.767Z,23.73
2019-03-09T23:54:15.550Z,43.07
2019-03-09T23:56:45.389Z,35.03
2019-03-09T23:59:15.179Z,35.20
